Terminal Aerodrome Forecast
Issued by NWS

Home | Current Version | Previous Version | Text Only | Print | Product List | Glossary Off
Versions: 1 2 3 4 5 6 7 8 9 10 11 12 13 14 15 16 17 18 19 20

000
FTUS43 KDVN 231740
TAFCID
TAF
KCID 231740Z 2318/2418 30015G22KT P6SM BKN150
     FM240100 31018G35KT P6SM BKN100
     FM240700 31018G30KT P6SM OVC040
     FM241000 32020G30KT P6SM OVC025
     FM241500 32023G35KT P6SM BKN030=

USA.gov is the U.S. government's official web portal to all federal, state and local government web resources and services.